createdAt,value
2023-02-04T00:03:34.597Z,5.50
2023-02-04T00:08:34.577Z,7.60
2023-02-04T00:13:34.518Z,5.70
2023-02-04T00:18:34.436Z,5.60
2023-02-04T00:23:34.377Z,6.60
2023-02-04T00:28:34.315Z,6.20
2023-02-04T00:33:34.303Z,6.80
2023-02-04T00:38:34.213Z,5.70
2023-02-04T00:43:34.180Z,7.00
2023-02-04T00:48:34.079Z,6.30
2023-02-04T00:53:34.065Z,5.20
2023-02-04T00:58:34.021Z,6.70
2023-02-04T01:03:33.959Z,7.20
2023-02-04T01:08:33.889Z,6.80
2023-02-04T01:13:33.855Z,6.30
2023-02-04T01:18:33.802Z,5.90
2023-02-04T01:23:33.762Z,5.80
2023-02-04T01:28:33.667Z,5.60
2023-02-04T01:33:33.636Z,8.60
2023-02-04T01:38:33.580Z,5.60
2023-02-04T01:43:33.532Z,6.60
2023-02-04T01:48:33.444Z,6.30
2023-02-04T01:53:33.421Z,7.20
2023-02-04T01:58:33.328Z,5.60
2023-02-04T02:03:33.317Z,6.10
2023-02-04T02:08:33.243Z,6.00
2023-02-04T02:13:33.163Z,6.20
2023-02-04T02:18:33.109Z,5.10
2023-02-04T02:23:33.080Z,6.90
2023-02-04T02:28:33.040Z,7.10
2023-02-04T02:33:32.958Z,7.70
2023-02-04T02:38:32.905Z,5.40
2023-02-04T02:43:32.837Z,7.20
2023-02-04T02:48:32.765Z,7.00
2023-02-04T02:53:32.727Z,6.40
2023-02-04T02:58:32.708Z,5.40
2023-02-04T03:03:32.594Z,6.90
2023-02-04T03:08:32.573Z,7.30
2023-02-04T03:13:32.494Z,7.20
2023-02-04T03:18:32.446Z,6.10
2023-02-04T03:23:32.424Z,5.90
2023-02-04T03:28:32.346Z,6.70
2023-02-04T03:33:32.279Z,8.20
2023-02-04T03:38:32.217Z,6.80
2023-02-04T03:43:34.006Z,6.90
2023-02-04T03:48:32.133Z,6.90
2023-02-04T03:53:32.056Z,6.20
2023-02-04T03:58:32.041Z,5.70
2023-02-04T04:03:31.950Z,6.20
2023-02-04T04:08:31.885Z,5.30
2023-02-04T04:13:31.870Z,6.20
2023-02-04T04:18:31.784Z,7.00
2023-02-04T04:23:31.740Z,6.70
2023-02-04T04:28:31.742Z,6.10
2023-02-04T04:33:31.654Z,6.10
2023-02-04T04:38:31.592Z,5.80
2023-02-04T04:43:31.493Z,6.70
2023-02-04T04:48:31.457Z,6.70
2023-02-04T04:53:31.409Z,7.70
2023-02-04T04:58:31.339Z,7.40
2023-02-04T05:03:31.283Z,6.70
2023-02-04T05:08:31.234Z,6.80
2023-02-04T05:13:31.201Z,8.30
2023-02-04T05:18:31.159Z,7.90
2023-02-04T05:23:39.916Z,7.40
2023-02-04T05:28:31.024Z,7.70
2023-02-04T05:33:30.948Z,6.70
2023-02-04T05:38:30.906Z,7.40
2023-02-04T05:43:30.844Z,6.80
2023-02-04T05:48:30.790Z,6.60
2023-02-04T05:53:30.725Z,6.80
2023-02-04T05:58:30.675Z,6.90
2023-02-04T06:03:30.816Z,6.30
2023-02-04T06:08:30.593Z,7.30
2023-02-04T06:13:30.546Z,6.10
2023-02-04T06:18:30.458Z,6.90
2023-02-04T06:23:30.395Z,7.30
2023-02-04T06:28:30.360Z,6.80
2023-02-04T06:33:30.286Z,7.30
2023-02-04T06:38:30.272Z,5.80
2023-02-04T06:43:30.184Z,6.00
2023-02-04T06:48:31.301Z,7.10
2023-02-04T06:53:30.073Z,6.40
2023-02-04T06:58:30.045Z,6.20
2023-02-04T07:03:29.957Z,6.50
2023-02-04T07:08:29.946Z,6.60
2023-02-04T07:13:29.906Z,7.10
2023-02-04T07:18:29.875Z,6.50
2023-02-04T07:23:29.738Z,7.30
2023-02-04T07:28:29.707Z,7.20
2023-02-04T07:33:29.618Z,7.00
2023-02-04T07:38:29.625Z,6.70
2023-02-04T07:43:29.549Z,6.80
2023-02-04T07:48:29.465Z,8.00
2023-02-04T07:53:29.423Z,7.50
2023-02-04T07:58:29.361Z,8.00
2023-02-04T08:03:29.407Z,7.40
2023-02-04T08:08:29.239Z,7.40
2023-02-04T08:13:29.221Z,7.40
2023-02-04T08:18:29.200Z,6.90
2023-02-04T08:23:29.085Z,8.80
2023-02-04T08:28:29.045Z,7.10
2023-02-04T08:33:28.957Z,7.70
2023-02-04T08:38:28.887Z,7.90
2023-02-04T08:43:28.954Z,8.70
2023-02-04T08:48:28.921Z,8.50
2023-02-04T08:53:28.757Z,8.10
2023-02-04T08:58:28.729Z,8.40
2023-02-04T09:03:28.668Z,8.40
2023-02-04T09:08:28.621Z,8.60
2023-02-04T09:13:28.584Z,8.20
2023-02-04T09:18:28.528Z,8.90
2023-02-04T09:23:28.456Z,7.20
2023-02-04T09:28:28.369Z,9.00
2023-02-04T09:33:28.388Z,8.30
2023-02-04T09:38:28.298Z,8.10
2023-02-04T09:43:28.228Z,10.10
2023-02-04T09:48:28.166Z,8.10
2023-02-04T09:53:28.127Z,10.00
2023-02-04T09:58:28.107Z,8.20
2023-02-04T10:03:28.037Z,8.50
2023-02-04T10:08:27.915Z,9.90
2023-02-04T10:13:27.858Z,8.90
2023-02-04T10:18:27.806Z,9.60
2023-02-04T10:23:27.761Z,9.90
2023-02-04T10:28:27.722Z,8.50
2023-02-04T10:33:27.648Z,8.40
2023-02-04T10:38:27.611Z,9.30
2023-02-04T10:43:27.557Z,9.30
2023-02-04T10:48:27.499Z,9.50
2023-02-04T10:53:27.468Z,9.20
2023-02-04T10:58:27.479Z,9.40
2023-02-04T11:03:27.383Z,8.70
2023-02-04T11:08:27.294Z,8.90
2023-02-04T11:13:27.221Z,8.50
2023-02-04T11:18:27.186Z,10.00
2023-02-04T11:23:35.954Z,8.80
2023-02-04T11:28:27.046Z,8.70
2023-02-04T11:33:26.987Z,8.90
2023-02-04T11:38:27.025Z,8.80
2023-02-04T11:43:26.910Z,8.90
2023-02-04T11:48:26.824Z,8.00
2023-02-04T11:53:26.802Z,7.80
2023-02-04T11:58:26.720Z,10.30
2023-02-04T12:03:26.735Z,7.50
2023-02-04T12:08:26.611Z,8.10
2023-02-04T12:13:26.685Z,7.10
2023-02-04T12:18:26.459Z,7.00
2023-02-04T12:23:26.487Z,6.40
2023-02-04T12:28:26.370Z,7.40
2023-02-04T12:33:26.330Z,7.50
2023-02-04T12:38:26.245Z,8.10
2023-02-04T12:43:28.272Z,7.30
2023-02-04T12:48:26.303Z,7.10
2023-02-04T12:53:26.066Z,11.00
2023-02-04T12:58:26.071Z,11.00
2023-02-04T13:03:25.990Z,11.70
2023-02-04T13:08:25.982Z,12.40
2023-02-04T13:13:25.965Z,11.70
2023-02-04T13:18:25.789Z,10.90
2023-02-04T13:23:25.827Z,11.90
2023-02-04T13:28:25.782Z,11.10
2023-02-04T13:33:25.605Z,11.80
2023-02-04T13:38:26.418Z,11.20
2023-02-04T13:43:25.563Z,12.30
2023-02-04T13:48:25.504Z,16.70
2023-02-04T13:53:25.470Z,14.80
2023-02-04T13:58:25.555Z,13.10
2023-02-04T14:03:25.322Z,13.70
2023-02-04T14:08:25.305Z,13.30
2023-02-04T14:13:25.178Z,13.10
2023-02-04T14:18:25.139Z,13.40
2023-02-04T14:23:25.213Z,14.80
2023-02-04T14:28:25.068Z,15.20
2023-02-04T14:33:25.002Z,15.10
2023-02-04T14:38:33.811Z,15.60
2023-02-04T14:43:24.841Z,16.70
2023-02-04T14:48:24.827Z,16.70
2023-02-04T14:53:24.763Z,16.60
2023-02-04T14:58:26.923Z,15.10
2023-02-04T15:03:24.754Z,15.50
2023-02-04T15:08:24.612Z,16.70
2023-02-04T15:13:24.580Z,15.50
2023-02-04T15:18:24.518Z,14.60
2023-02-04T15:23:24.404Z,14.90
2023-02-04T15:28:24.424Z,13.90
2023-02-04T15:33:24.321Z,15.60
2023-02-04T15:38:24.229Z,13.50
2023-02-04T15:43:24.213Z,15.30
2023-02-04T15:48:24.156Z,15.60
2023-02-04T15:53:24.152Z,15.00
2023-02-04T15:58:24.056Z,16.00
2023-02-04T16:03:23.985Z,16.30
2023-02-04T16:08:23.959Z,17.40
2023-02-04T16:13:23.869Z,20.10
2023-02-04T16:18:23.841Z,18.80
2023-02-04T16:23:23.770Z,15.00
2023-02-04T16:28:23.721Z,15.80
2023-02-04T16:33:23.886Z,17.40
2023-02-04T16:38:23.683Z,16.20
2023-02-04T16:43:23.610Z,18.10
2023-02-04T16:48:23.533Z,20.50
2023-02-04T16:53:23.419Z,18.60
2023-02-04T16:58:23.369Z,19.90
2023-02-04T17:03:23.310Z,20.50
2023-02-04T17:08:23.296Z,20.20
2023-02-04T17:13:23.203Z,20.60
2023-02-04T17:18:23.203Z,22.10
2023-02-04T17:23:23.127Z,19.50
2023-02-04T17:28:31.936Z,20.00
2023-02-04T17:33:22.955Z,23.40
2023-02-04T17:38:23.713Z,21.80
2023-02-04T17:43:22.890Z,22.80
2023-02-04T17:48:22.836Z,23.10
2023-02-04T17:53:22.798Z,22.00
2023-02-04T17:58:22.724Z,24.10
2023-02-04T18:03:22.691Z,22.40
2023-02-04T18:08:22.635Z,23.20
2023-02-04T18:13:22.553Z,21.70
2023-02-04T18:18:22.502Z,29.60
2023-02-04T18:23:22.443Z,30.30
2023-02-04T18:28:22.474Z,29.70
2023-02-04T18:33:22.328Z,35.50
2023-02-04T18:38:22.308Z,28.40
2023-02-04T18:43:22.241Z,29.70
2023-02-04T18:48:22.195Z,23.10
2023-02-04T18:53:22.145Z,24.20
2023-02-04T18:58:22.035Z,26.20
2023-02-04T19:03:22.005Z,24.60
2023-02-04T19:08:21.967Z,28.80
2023-02-04T19:13:21.944Z,31.60
2023-02-04T19:18:21.818Z,27.80
2023-02-04T19:23:21.765Z,28.30
2023-02-04T19:28:24.089Z,28.00
2023-02-04T19:33:21.660Z,29.10
2023-02-04T19:38:21.625Z,25.90
2023-02-04T19:43:21.580Z,31.40
2023-02-04T19:48:21.514Z,28.80
2023-02-04T19:53:21.483Z,27.60
2023-02-04T19:58:21.524Z,29.50
2023-02-04T20:03:21.458Z,31.90
2023-02-04T20:08:21.306Z,28.70
2023-02-04T20:13:21.229Z,28.40
2023-02-04T20:18:21.214Z,31.70
2023-02-04T20:23:21.131Z,24.30
2023-02-04T20:28:21.051Z,26.20
2023-02-04T20:33:21.030Z,26.10
2023-02-04T20:38:20.945Z,25.20
2023-02-04T20:43:20.915Z,24.70
2023-02-04T20:48:20.863Z,23.90
2023-02-04T20:53:20.808Z,26.30
2023-02-04T20:58:20.757Z,25.60
2023-02-04T21:03:20.709Z,28.00
2023-02-04T21:08:20.652Z,27.50
2023-02-04T21:13:20.566Z,26.10
2023-02-04T21:18:20.504Z,26.80
2023-02-04T21:23:20.495Z,26.70
2023-02-04T21:28:20.419Z,25.00
2023-02-04T21:33:20.335Z,23.70
2023-02-04T21:38:20.311Z,23.70
2023-02-04T21:43:20.253Z,24.00
2023-02-04T21:48:20.204Z,23.60
2023-02-04T21:53:20.129Z,24.40
2023-02-04T21:58:20.064Z,23.60
2023-02-04T22:03:20.046Z,26.20
2023-02-04T22:08:19.963Z,24.20
2023-02-04T22:13:19.917Z,25.30
2023-02-04T22:18:19.834Z,25.20
2023-02-04T22:23:19.783Z,22.50
2023-02-04T22:28:19.823Z,25.20
2023-02-04T22:33:19.700Z,27.50
2023-02-04T22:38:19.641Z,27.30
2023-02-04T22:43:19.605Z,40.80
2023-02-04T22:48:19.532Z,32.90
2023-02-04T22:53:19.478Z,22.80
2023-02-04T22:58:19.452Z,31.10
2023-02-04T23:03:19.354Z,27.50
2023-02-04T23:08:19.311Z,24.20
2023-02-04T23:13:19.273Z,24.10
2023-02-04T23:18:19.170Z,22.90
2023-02-04T23:23:19.153Z,22.60
2023-02-04T23:28:28.968Z,27.00
2023-02-04T23:33:19.000Z,38.20
2023-02-04T23:38:18.997Z,28.00
2023-02-04T23:43:19.001Z,30.00
2023-02-04T23:48:18.903Z,22.60
2023-02-04T23:53:18.864Z,23.70
2023-02-04T23:58:18.734Z,23.40
